sensor_id;sensor_type;location;lat;lon;timestamp;P1;durP1;ratioP1;P2;durP2;ratioP2
67063;SDS011;58476;48.072;11.970;2023-07-24T00:01:48;7.53;;;3.35;;
67063;SDS011;58476;48.072;11.970;2023-07-24T00:04:14;7.30;;;3.42;;
67063;SDS011;58476;48.072;11.970;2023-07-24T00:06:39;8.05;;;3.55;;
67063;SDS011;58476;48.072;11.970;2023-07-24T00:09:04;8.07;;;3.80;;
67063;SDS011;58476;48.072;11.970;2023-07-24T00:11:29;8.10;;;3.20;;
67063;SDS011;58476;48.072;11.970;2023-07-24T00:13:55;8.05;;;3.38;;
67063;SDS011;58476;48.072;11.970;2023-07-24T00:16:20;5.78;;;3.20;;
67063;SDS011;58476;48.072;11.970;2023-07-24T00:18:46;7.88;;;3.30;;
67063;SDS011;58476;48.072;11.970;2023-07-24T00:21:11;6.95;;;3.17;;
67063;SDS011;58476;48.072;11.970;2023-07-24T00:23:37;9.07;;;3.72;;
67063;SDS011;58476;48.072;11.970;2023-07-24T00:26:02;5.90;;;3.13;;
67063;SDS011;58476;48.072;11.970;2023-07-24T00:28:28;8.88;;;3.60;;
67063;SDS011;58476;48.072;11.970;2023-07-24T00:30:53;7.07;;;3.05;;
67063;SDS011;58476;48.072;11.970;2023-07-24T00:33:18;6.35;;;3.13;;
67063;SDS011;58476;48.072;11.970;2023-07-24T00:35:44;5.35;;;3.13;;
67063;SDS011;58476;48.072;11.970;2023-07-24T00:38:09;7.63;;;3.22;;
67063;SDS011;58476;48.072;11.970;2023-07-24T00:40:34;6.55;;;3.25;;
67063;SDS011;58476;48.072;11.970;2023-07-24T00:43:00;10.00;;;3.33;;
67063;SDS011;58476;48.072;11.970;2023-07-24T00:45:27;14.00;;;3.80;;
67063;SDS011;58476;48.072;11.970;2023-07-24T00:47:52;5.35;;;3.10;;
67063;SDS011;58476;48.072;11.970;2023-07-24T00:50:18;6.75;;;3.25;;
67063;SDS011;58476;48.072;11.970;2023-07-24T00:52:44;7.40;;;2.95;;
67063;SDS011;58476;48.072;11.970;2023-07-24T00:55:10;5.88;;;3.20;;
67063;SDS011;58476;48.072;11.970;2023-07-24T00:57:40;5.25;;;3.13;;
67063;SDS011;58476;48.072;11.970;2023-07-24T01:00:06;6.03;;;2.90;;
67063;SDS011;58476;48.072;11.970;2023-07-24T01:02:32;8.57;;;3.75;;
67063;SDS011;58476;48.072;11.970;2023-07-24T01:04:58;5.10;;;3.08;;
67063;SDS011;58476;48.072;11.970;2023-07-24T01:07:23;23.27;;;3.90;;
67063;SDS011;58476;48.072;11.970;2023-07-24T01:09:49;9.23;;;3.15;;
67063;SDS011;58476;48.072;11.970;2023-07-24T01:12:58;14.00;;;3.38;;
67063;SDS011;58476;48.072;11.970;2023-07-24T01:15:14;17.00;;;3.88;;
67063;SDS011;58476;48.072;11.970;2023-07-24T01:18:09;8.55;;;3.35;;
67063;SDS011;58476;48.072;11.970;2023-07-24T01:20:37;6.53;;;3.00;;
67063;SDS011;58476;48.072;11.970;2023-07-24T01:25:35;6.60;;;3.08;;
67063;SDS011;58476;48.072;11.970;2023-07-24T01:28:00;7.10;;;3.15;;
67063;SDS011;58476;48.072;11.970;2023-07-24T01:30:26;7.28;;;3.30;;
67063;SDS011;58476;48.072;11.970;2023-07-24T01:32:51;7.10;;;2.80;;
67063;SDS011;58476;48.072;11.970;2023-07-24T01:35:17;8.90;;;3.45;;
67063;SDS011;58476;48.072;11.970;2023-07-24T01:37:43;8.80;;;3.13;;
67063;SDS011;58476;48.072;11.970;2023-07-24T01:40:11;6.43;;;2.92;;
67063;SDS011;58476;48.072;11.970;2023-07-24T01:42:37;6.20;;;2.95;;
67063;SDS011;58476;48.072;11.970;2023-07-24T01:45:03;6.82;;;3.22;;
67063;SDS011;58476;48.072;11.970;2023-07-24T01:47:29;6.07;;;2.97;;
67063;SDS011;58476;48.072;11.970;2023-07-24T01:49:55;5.35;;;2.80;;
67063;SDS011;58476;48.072;11.970;2023-07-24T01:52:21;5.20;;;2.92;;
67063;SDS011;58476;48.072;11.970;2023-07-24T01:54:46;4.75;;;2.78;;
67063;SDS011;58476;48.072;11.970;2023-07-24T01:57:12;5.75;;;3.08;;
67063;SDS011;58476;48.072;11.970;2023-07-24T01:59:37;5.70;;;2.80;;
67063;SDS011;58476;48.072;11.970;2023-07-24T02:02:02;5.82;;;2.97;;
67063;SDS011;58476;48.072;11.970;2023-07-24T02:04:28;5.05;;;3.10;;
67063;SDS011;58476;48.072;11.970;2023-07-24T02:06:53;4.30;;;2.60;;
67063;SDS011;58476;48.072;11.970;2023-07-24T02:09:18;6.28;;;3.17;;
67063;SDS011;58476;48.072;11.970;2023-07-24T02:11:44;6.05;;;3.15;;
67063;SDS011;58476;48.072;11.970;2023-07-24T02:14:11;5.93;;;3.10;;
67063;SDS011;58476;48.072;11.970;2023-07-24T02:16:37;7.85;;;2.80;;
67063;SDS011;58476;48.072;11.970;2023-07-24T02:19:02;5.43;;;3.00;;
67063;SDS011;58476;48.072;11.970;2023-07-24T02:21:28;5.60;;;2.92;;
67063;SDS011;58476;48.072;11.970;2023-07-24T02:23:53;5.93;;;3.13;;
67063;SDS011;58476;48.072;11.970;2023-07-24T02:26:19;6.38;;;3.00;;
67063;SDS011;58476;48.072;11.970;2023-07-24T02:28:44;6.63;;;3.22;;
67063;SDS011;58476;48.072;11.970;2023-07-24T02:31:10;5.03;;;2.78;;
67063;SDS011;58476;48.072;11.970;2023-07-24T02:33:36;4.57;;;2.92;;
67063;SDS011;58476;48.072;11.970;2023-07-24T02:36:01;4.82;;;2.67;;
67063;SDS011;58476;48.072;11.970;2023-07-24T02:38:27;6.78;;;3.03;;
67063;SDS011;58476;48.072;11.970;2023-07-24T02:40:52;4.40;;;2.80;;
67063;SDS011;58476;48.072;11.970;2023-07-24T02:43:17;5.28;;;2.92;;
67063;SDS011;58476;48.072;11.970;2023-07-24T02:45:43;4.47;;;2.90;;
67063;SDS011;58476;48.072;11.970;2023-07-24T02:48:08;5.28;;;2.78;;
67063;SDS011;58476;48.072;11.970;2023-07-24T02:50:34;6.93;;;3.15;;
67063;SDS011;58476;48.072;11.970;2023-07-24T02:52:59;5.20;;;2.90;;
67063;SDS011;58476;48.072;11.970;2023-07-24T02:55:24;5.28;;;2.95;;
67063;SDS011;58476;48.072;11.970;2023-07-24T02:57:50;4.13;;;2.63;;
67063;SDS011;58476;48.072;11.970;2023-07-24T03:00:16;4.70;;;2.90;;
67063;SDS011;58476;48.072;11.970;2023-07-24T03:02:41;4.25;;;2.78;;
67063;SDS011;58476;48.072;11.970;2023-07-24T03:05:07;4.85;;;2.78;;
67063;SDS011;58476;48.072;11.970;2023-07-24T03:07:32;5.15;;;2.90;;
67063;SDS011;58476;48.072;11.970;2023-07-24T03:09:58;4.32;;;2.85;;
67063;SDS011;58476;48.072;11.970;2023-07-24T03:12:23;4.97;;;2.65;;
67063;SDS011;58476;48.072;11.970;2023-07-24T03:14:49;5.72;;;2.95;;
67063;SDS011;58476;48.072;11.970;2023-07-24T03:17:15;5.30;;;3.10;;
67063;SDS011;58476;48.072;11.970;2023-07-24T03:19:40;4.50;;;2.85;;
67063;SDS011;58476;48.072;11.970;2023-07-24T03:22:06;6.18;;;2.75;;
67063;SDS011;58476;48.072;11.970;2023-07-24T03:24:33;4.68;;;2.75;;
67063;SDS011;58476;48.072;11.970;2023-07-24T03:26:59;4.75;;;2.72;;
67063;SDS011;58476;48.072;11.970;2023-07-24T03:29:24;4.95;;;2.88;;
67063;SDS011;58476;48.072;11.970;2023-07-24T03:31:49;5.80;;;2.88;;
67063;SDS011;58476;48.072;11.970;2023-07-24T03:34:15;4.38;;;2.58;;
67063;SDS011;58476;48.072;11.970;2023-07-24T03:36:40;5.53;;;2.83;;
67063;SDS011;58476;48.072;11.970;2023-07-24T03:39:05;4.18;;;2.70;;
67063;SDS011;58476;48.072;11.970;2023-07-24T03:41:31;4.45;;;2.80;;
67063;SDS011;58476;48.072;11.970;2023-07-24T03:43:56;4.97;;;2.67;;
67063;SDS011;58476;48.072;11.970;2023-07-24T03:46:22;4.50;;;2.63;;
67063;SDS011;58476;48.072;11.970;2023-07-24T03:48:48;3.83;;;2.50;;
67063;SDS011;58476;48.072;11.970;2023-07-24T03:51:13;5.55;;;3.63;;
67063;SDS011;58476;48.072;11.970;2023-07-24T03:53:38;5.20;;;2.85;;
67063;SDS011;58476;48.072;11.970;2023-07-24T03:56:04;4.80;;;2.95;;
67063;SDS011;58476;48.072;11.970;2023-07-24T03:58:29;4.80;;;2.95;;
67063;SDS011;58476;48.072;11.970;2023-07-24T04:00:54;5.00;;;2.90;;
67063;SDS011;58476;48.072;11.970;2023-07-24T04:03:19;4.30;;;2.63;;
67063;SDS011;58476;48.072;11.970;2023-07-24T04:05:45;4.97;;;2.95;;
67063;SDS011;58476;48.072;11.970;2023-07-24T04:08:10;4.43;;;2.60;;
67063;SDS011;58476;48.072;11.970;2023-07-24T04:10:36;8.98;;;2.75;;
67063;SDS011;58476;48.072;11.970;2023-07-24T04:13:01;4.97;;;2.70;;
67063;SDS011;58476;48.072;11.970;2023-07-24T04:15:26;7.45;;;3.03;;
67063;SDS011;58476;48.072;11.970;2023-07-24T04:17:52;8.35;;;2.90;;
67063;SDS011;58476;48.072;11.970;2023-07-24T04:20:17;5.03;;;2.85;;
67063;SDS011;58476;48.072;11.970;2023-07-24T04:22:42;9.32;;;2.72;;
67063;SDS011;58476;48.072;11.970;2023-07-24T04:25:08;5.75;;;3.20;;
67063;SDS011;58476;48.072;11.970;2023-07-24T04:27:33;7.07;;;2.92;;
67063;SDS011;58476;48.072;11.970;2023-07-24T04:29:59;7.03;;;2.60;;
67063;SDS011;58476;48.072;11.970;2023-07-24T04:32:25;13.70;;;3.28;;
67063;SDS011;58476;48.072;11.970;2023-07-24T04:34:51;8.98;;;2.85;;
67063;SDS011;58476;48.072;11.970;2023-07-24T04:37:17;10.43;;;3.13;;
67063;SDS011;58476;48.072;11.970;2023-07-24T04:39:42;6.35;;;2.90;;
67063;SDS011;58476;48.072;11.970;2023-07-24T04:42:07;12.35;;;3.35;;
67063;SDS011;58476;48.072;11.970;2023-07-24T04:44:33;6.28;;;2.72;;
67063;SDS011;58476;48.072;11.970;2023-07-24T04:46:58;11.75;;;3.03;;
67063;SDS011;58476;48.072;11.970;2023-07-24T04:49:24;11.25;;;3.00;;
67063;SDS011;58476;48.072;11.970;2023-07-24T04:51:50;7.60;;;3.22;;
67063;SDS011;58476;48.072;11.970;2023-07-24T04:54:16;9.13;;;2.95;;
67063;SDS011;58476;48.072;11.970;2023-07-24T04:56:42;12.05;;;3.17;;
67063;SDS011;58476;48.072;11.970;2023-07-24T04:59:07;9.63;;;3.47;;
67063;SDS011;58476;48.072;11.970;2023-07-24T05:01:32;8.15;;;3.63;;
67063;SDS011;58476;48.072;11.970;2023-07-24T05:03:58;10.15;;;3.10;;
67063;SDS011;58476;48.072;11.970;2023-07-24T05:06:23;11.82;;;3.25;;
67063;SDS011;58476;48.072;11.970;2023-07-24T05:08:48;12.90;;;3.80;;
67063;SDS011;58476;48.072;11.970;2023-07-24T05:11:14;11.50;;;3.88;;
67063;SDS011;58476;48.072;11.970;2023-07-24T05:13:39;10.85;;;3.67;;
67063;SDS011;58476;48.072;11.970;2023-07-24T05:16:05;8.05;;;3.38;;
67063;SDS011;58476;48.072;11.970;2023-07-24T05:18:30;8.25;;;3.70;;
67063;SDS011;58476;48.072;11.970;2023-07-24T05:20:55;10.00;;;4.35;;
67063;SDS011;58476;48.072;11.970;2023-07-24T05:23:21;10.65;;;3.97;;
67063;SDS011;58476;48.072;11.970;2023-07-24T05:25:46;11.40;;;4.28;;
67063;SDS011;58476;48.072;11.970;2023-07-24T05:28:12;12.30;;;4.28;;
67063;SDS011;58476;48.072;11.970;2023-07-24T05:30:38;12.80;;;4.60;;
67063;SDS011;58476;48.072;11.970;2023-07-24T05:33:03;13.13;;;4.28;;
67063;SDS011;58476;48.072;11.970;2023-07-24T05:35:29;13.70;;;4.10;;
67063;SDS011;58476;48.072;11.970;2023-07-24T05:37:54;37.05;;;5.53;;
67063;SDS011;58476;48.072;11.970;2023-07-24T05:40:19;50.63;;;7.15;;
67063;SDS011;58476;48.072;11.970;2023-07-24T05:42:45;18.60;;;5.32;;
67063;SDS011;58476;48.072;11.970;2023-07-24T05:45:10;89.82;;;9.85;;
67063;SDS011;58476;48.072;11.970;2023-07-24T05:47:36;61.30;;;9.27;;
67063;SDS011;58476;48.072;11.970;2023-07-24T05:50:01;20.40;;;4.65;;
67063;SDS011;58476;48.072;11.970;2023-07-24T05:52:27;24.25;;;4.88;;
67063;SDS011;58476;48.072;11.970;2023-07-24T05:54:52;16.63;;;4.68;;
67063;SDS011;58476;48.072;11.970;2023-07-24T05:57:17;16.60;;;5.43;;
67063;SDS011;58476;48.072;11.970;2023-07-24T05:59:42;21.85;;;5.60;;
67063;SDS011;58476;48.072;11.970;2023-07-24T06:02:08;17.88;;;4.93;;
67063;SDS011;58476;48.072;11.970;2023-07-24T06:04:33;37.17;;;5.43;;
67063;SDS011;58476;48.072;11.970;2023-07-24T06:06:59;15.43;;;5.50;;
67063;SDS011;58476;48.072;11.970;2023-07-24T06:09:24;16.42;;;4.65;;
67063;SDS011;58476;48.072;11.970;2023-07-24T06:11:49;24.10;;;5.85;;
67063;SDS011;58476;48.072;11.970;2023-07-24T06:14:15;28.00;;;7.43;;
67063;SDS011;58476;48.072;11.970;2023-07-24T06:16:40;12.85;;;4.70;;
67063;SDS011;58476;48.072;11.970;2023-07-24T06:19:05;14.95;;;5.05;;
67063;SDS011;58476;48.072;11.970;2023-07-24T06:21:31;10.88;;;4.60;;
67063;SDS011;58476;48.072;11.970;2023-07-24T06:23:56;9.65;;;4.85;;
67063;SDS011;58476;48.072;11.970;2023-07-24T06:26:21;11.38;;;4.78;;
67063;SDS011;58476;48.072;11.970;2023-07-24T06:28:47;11.43;;;5.20;;
67063;SDS011;58476;48.072;11.970;2023-07-24T06:31:12;10.35;;;5.30;;
67063;SDS011;58476;48.072;11.970;2023-07-24T06:33:38;8.85;;;4.65;;
67063;SDS011;58476;48.072;11.970;2023-07-24T06:36:03;11.40;;;5.22;;
67063;SDS011;58476;48.072;11.970;2023-07-24T06:38:28;9.18;;;4.70;;
67063;SDS011;58476;48.072;11.970;2023-07-24T06:40:54;10.00;;;5.55;;
67063;SDS011;58476;48.072;11.970;2023-07-24T06:43:19;8.98;;;4.72;;
67063;SDS011;58476;48.072;11.970;2023-07-24T06:45:45;8.35;;;4.75;;
67063;SDS011;58476;48.072;11.970;2023-07-24T06:48:10;9.32;;;4.97;;
67063;SDS011;58476;48.072;11.970;2023-07-24T06:50:35;11.95;;;5.25;;
67063;SDS011;58476;48.072;11.970;2023-07-24T06:53:01;12.95;;;5.25;;
67063;SDS011;58476;48.072;11.970;2023-07-24T06:55:26;12.82;;;5.30;;
67063;SDS011;58476;48.072;11.970;2023-07-24T06:57:51;14.85;;;5.20;;
67063;SDS011;58476;48.072;11.970;2023-07-24T07:00:17;9.20;;;5.18;;
67063;SDS011;58476;48.072;11.970;2023-07-24T07:02:42;10.70;;;4.90;;
67063;SDS011;58476;48.072;11.970;2023-07-24T07:05:08;13.18;;;5.28;;
67063;SDS011;58476;48.072;11.970;2023-07-24T07:07:33;11.88;;;5.10;;
67063;SDS011;58476;48.072;11.970;2023-07-24T07:09:58;11.13;;;5.20;;
67063;SDS011;58476;48.072;11.970;2023-07-24T07:12:24;9.43;;;4.90;;
67063;SDS011;58476;48.072;11.970;2023-07-24T07:14:49;12.05;;;5.28;;
67063;SDS011;58476;48.072;11.970;2023-07-24T07:17:14;10.95;;;5.13;;
67063;SDS011;58476;48.072;11.970;2023-07-24T07:19:40;11.07;;;5.40;;
67063;SDS011;58476;48.072;11.970;2023-07-24T07:22:05;16.30;;;5.25;;
67063;SDS011;58476;48.072;11.970;2023-07-24T07:24:31;12.77;;;5.72;;
67063;SDS011;58476;48.072;11.970;2023-07-24T07:26:56;10.15;;;5.22;;
67063;SDS011;58476;48.072;11.970;2023-07-24T07:29:21;9.93;;;5.30;;
67063;SDS011;58476;48.072;11.970;2023-07-24T07:31:47;11.85;;;5.05;;
67063;SDS011;58476;48.072;11.970;2023-07-24T07:34:12;7.78;;;4.80;;
67063;SDS011;58476;48.072;11.970;2023-07-24T07:36:38;9.18;;;5.38;;
67063;SDS011;58476;48.072;11.970;2023-07-24T07:39:03;8.23;;;5.05;;
67063;SDS011;58476;48.072;11.970;2023-07-24T07:41:28;12.25;;;5.32;;
67063;SDS011;58476;48.072;11.970;2023-07-24T07:43:54;9.98;;;5.38;;
67063;SDS011;58476;48.072;11.970;2023-07-24T07:46:19;8.98;;;5.15;;
67063;SDS011;58476;48.072;11.970;2023-07-24T07:48:45;11.80;;;5.28;;
67063;SDS011;58476;48.072;11.970;2023-07-24T07:51:10;10.35;;;4.85;;
67063;SDS011;58476;48.072;11.970;2023-07-24T07:53:36;12.38;;;5.50;;
67063;SDS011;58476;48.072;11.970;2023-07-24T07:56:03;9.20;;;5.18;;
67063;SDS011;58476;48.072;11.970;2023-07-24T07:58:29;9.43;;;5.10;;
67063;SDS011;58476;48.072;11.970;2023-07-24T08:00:55;8.85;;;4.82;;
67063;SDS011;58476;48.072;11.970;2023-07-24T08:03:20;9.00;;;5.03;;
67063;SDS011;58476;48.072;11.970;2023-07-24T08:05:46;9.95;;;5.50;;
67063;SDS011;58476;48.072;11.970;2023-07-24T08:08:11;11.23;;;5.68;;
67063;SDS011;58476;48.072;11.970;2023-07-24T08:10:37;11.82;;;5.18;;
67063;SDS011;58476;48.072;11.970;2023-07-24T08:13:03;10.40;;;5.25;;
67063;SDS011;58476;48.072;11.970;2023-07-24T08:15:28;14.30;;;5.78;;
67063;SDS011;58476;48.072;11.970;2023-07-24T08:17:53;9.73;;;5.38;;
67063;SDS011;58476;48.072;11.970;2023-07-24T08:20:19;9.40;;;5.18;;
67063;SDS011;58476;48.072;11.970;2023-07-24T08:22:44;10.45;;;5.45;;
67063;SDS011;58476;48.072;11.970;2023-07-24T08:25:09;11.02;;;5.68;;
67063;SDS011;58476;48.072;11.970;2023-07-24T08:27:35;10.50;;;5.22;;
67063;SDS011;58476;48.072;11.970;2023-07-24T08:30:00;7.82;;;4.60;;
67063;SDS011;58476;48.072;11.970;2023-07-24T08:32:25;9.57;;;5.40;;
67063;SDS011;58476;48.072;11.970;2023-07-24T08:34:51;8.05;;;4.50;;
67063;SDS011;58476;48.072;11.970;2023-07-24T08:37:16;9.07;;;4.70;;
67063;SDS011;58476;48.072;11.970;2023-07-24T08:39:42;8.70;;;4.75;;
67063;SDS011;58476;48.072;11.970;2023-07-24T08:42:08;9.40;;;4.72;;
67063;SDS011;58476;48.072;11.970;2023-07-24T08:44:34;10.85;;;5.10;;
67063;SDS011;58476;48.072;11.970;2023-07-24T08:47:00;16.02;;;7.10;;
67063;SDS011;58476;48.072;11.970;2023-07-24T08:49:26;22.05;;;6.10;;
67063;SDS011;58476;48.072;11.970;2023-07-24T08:51:54;21.25;;;6.00;;
67063;SDS011;58476;48.072;11.970;2023-07-24T08:54:20;14.48;;;5.18;;
67063;SDS011;58476;48.072;11.970;2023-07-24T08:56:49;11.60;;;5.18;;
67063;SDS011;58476;48.072;11.970;2023-07-24T08:59:14;9.70;;;4.93;;
67063;SDS011;58476;48.072;11.970;2023-07-24T09:01:40;15.85;;;5.43;;
67063;SDS011;58476;48.072;11.970;2023-07-24T09:04:05;12.63;;;5.30;;
67063;SDS011;58476;48.072;11.970;2023-07-24T09:06:30;9.30;;;4.95;;
67063;SDS011;58476;48.072;11.970;2023-07-24T09:08:56;11.07;;;5.20;;
67063;SDS011;58476;48.072;11.970;2023-07-24T09:11:21;10.90;;;5.40;;
67063;SDS011;58476;48.072;11.970;2023-07-24T09:13:47;10.27;;;4.85;;
67063;SDS011;58476;48.072;11.970;2023-07-24T09:16:25;11.13;;;5.07;;
67063;SDS011;58476;48.072;11.970;2023-07-24T09:18:51;10.32;;;4.60;;
67063;SDS011;58476;48.072;11.970;2023-07-24T09:21:30;8.50;;;4.70;;
67063;SDS011;58476;48.072;11.970;2023-07-24T09:23:56;8.82;;;4.72;;
67063;SDS011;58476;48.072;11.970;2023-07-24T09:26:21;9.73;;;5.20;;
67063;SDS011;58476;48.072;11.970;2023-07-24T09:28:53;8.77;;;4.65;;
67063;SDS011;58476;48.072;11.970;2023-07-24T09:31:18;8.75;;;4.78;;
67063;SDS011;58476;48.072;11.970;2023-07-24T09:33:44;8.95;;;4.90;;
67063;SDS011;58476;48.072;11.970;2023-07-24T09:36:09;8.70;;;4.40;;
67063;SDS011;58476;48.072;11.970;2023-07-24T09:38:35;8.07;;;4.68;;
67063;SDS011;58476;48.072;11.970;2023-07-24T09:41:02;8.38;;;4.45;;
67063;SDS011;58476;48.072;11.970;2023-07-24T09:43:28;7.70;;;4.45;;
67063;SDS011;58476;48.072;11.970;2023-07-24T09:45:55;9.68;;;4.50;;
67063;SDS011;58476;48.072;11.970;2023-07-24T09:48:22;7.93;;;4.50;;
67063;SDS011;58476;48.072;11.970;2023-07-24T09:50:52;8.90;;;4.25;;
67063;SDS011;58476;48.072;11.970;2023-07-24T09:56:03;10.23;;;4.50;;
67063;SDS011;58476;48.072;11.970;2023-07-24T09:58:35;8.55;;;4.35;;
67063;SDS011;58476;48.072;11.970;2023-07-24T10:01:03;10.00;;;4.45;;
67063;SDS011;58476;48.072;11.970;2023-07-24T10:03:38;9.23;;;4.60;;
67063;SDS011;58476;48.072;11.970;2023-07-24T10:06:05;11.40;;;4.93;;
67063;SDS011;58476;48.072;11.970;2023-07-24T10:08:31;9.55;;;4.47;;
67063;SDS011;58476;48.072;11.970;2023-07-24T10:10:58;9.90;;;4.55;;
67063;SDS011;58476;48.072;11.970;2023-07-24T10:13:25;13.95;;;4.85;;
67063;SDS011;58476;48.072;11.970;2023-07-24T10:15:51;14.90;;;5.25;;
67063;SDS011;58476;48.072;11.970;2023-07-24T10:18:17;10.27;;;5.00;;
67063;SDS011;58476;48.072;11.970;2023-07-24T10:20:59;10.35;;;5.00;;
67063;SDS011;58476;48.072;11.970;2023-07-24T10:23:41;10.50;;;4.60;;
67063;SDS011;58476;48.072;11.970;2023-07-24T10:26:08;7.57;;;4.15;;
67063;SDS011;58476;48.072;11.970;2023-07-24T10:28:38;11.40;;;4.45;;
67063;SDS011;58476;48.072;11.970;2023-07-24T10:31:23;12.10;;;4.70;;
67063;SDS011;58476;48.072;11.970;2023-07-24T10:33:50;11.45;;;4.80;;
67063;SDS011;58476;48.072;11.970;2023-07-24T10:36:16;18.40;;;5.65;;
67063;SDS011;58476;48.072;11.970;2023-07-24T10:38:43;66.15;;;11.93;;
67063;SDS011;58476;48.072;11.970;2023-07-24T10:41:09;77.18;;;17.08;;
67063;SDS011;58476;48.072;11.970;2023-07-24T10:43:51;61.72;;;16.25;;
67063;SDS011;58476;48.072;11.970;2023-07-24T10:46:18;49.38;;;30.48;;
67063;SDS011;58476;48.072;11.970;2023-07-24T10:48:49;71.47;;;42.08;;
67063;SDS011;58476;48.072;11.970;2023-07-24T10:51:15;75.38;;;49.20;;
67063;SDS011;58476;48.072;11.970;2023-07-24T10:53:44;56.50;;;33.30;;
67063;SDS011;58476;48.072;11.970;2023-07-24T10:56:10;53.10;;;28.63;;
67063;SDS011;58476;48.072;11.970;2023-07-24T10:58:36;40.50;;;25.20;;
67063;SDS011;58476;48.072;11.970;2023-07-24T11:01:04;43.13;;;24.45;;
67063;SDS011;58476;48.072;11.970;2023-07-24T11:03:31;36.05;;;22.10;;
67063;SDS011;58476;48.072;11.970;2023-07-24T11:05:57;36.40;;;18.45;;
67063;SDS011;58476;48.072;11.970;2023-07-24T11:08:23;28.02;;;16.80;;
67063;SDS011;58476;48.072;11.970;2023-07-24T11:10:50;32.95;;;17.98;;
67063;SDS011;58476;48.072;11.970;2023-07-24T11:13:26;32.50;;;18.13;;
67063;SDS011;58476;48.072;11.970;2023-07-24T11:15:53;32.10;;;16.23;;
67063;SDS011;58476;48.072;11.970;2023-07-24T11:18:19;31.88;;;15.55;;
67063;SDS011;58476;48.072;11.970;2023-07-24T11:20:46;29.73;;;14.95;;
67063;SDS011;58476;48.072;11.970;2023-07-24T11:23:13;28.10;;;13.30;;
67063;SDS011;58476;48.072;11.970;2023-07-24T11:25:39;29.35;;;13.25;;
67063;SDS011;58476;48.072;11.970;2023-07-24T11:28:05;25.27;;;12.40;;
67063;SDS011;58476;48.072;11.970;2023-07-24T11:30:31;22.17;;;10.02;;
67063;SDS011;58476;48.072;11.970;2023-07-24T11:33:00;25.27;;;12.40;;
67063;SDS011;58476;48.072;11.970;2023-07-24T11:35:27;20.48;;;9.75;;
67063;SDS011;58476;48.072;11.970;2023-07-24T11:37:53;25.52;;;10.68;;
67063;SDS011;58476;48.072;11.970;2023-07-24T11:40:19;25.60;;;9.95;;
67063;SDS011;58476;48.072;11.970;2023-07-24T11:42:44;21.50;;;8.65;;
67063;SDS011;58476;48.072;11.970;2023-07-24T11:45:10;27.38;;;9.65;;
67063;SDS011;58476;48.072;11.970;2023-07-24T11:50:11;25.50;;;7.95;;
67063;SDS011;58476;48.072;11.970;2023-07-24T11:52:37;22.25;;;8.63;;
67063;SDS011;58476;48.072;11.970;2023-07-24T11:55:07;28.45;;;7.45;;
67063;SDS011;58476;48.072;11.970;2023-07-24T11:57:33;19.27;;;7.20;;
67063;SDS011;58476;48.072;11.970;2023-07-24T11:59:59;20.40;;;5.97;;
67063;SDS011;58476;48.072;11.970;2023-07-24T12:02:27;18.83;;;6.20;;
67063;SDS011;58476;48.072;11.970;2023-07-24T12:04:56;19.80;;;6.38;;
67063;SDS011;58476;48.072;11.970;2023-07-24T12:07:23;20.98;;;6.18;;
67063;SDS011;58476;48.072;11.970;2023-07-24T12:09:53;15.80;;;6.20;;
67063;SDS011;58476;48.072;11.970;2023-07-24T12:12:19;16.77;;;5.43;;
67063;SDS011;58476;48.072;11.970;2023-07-24T12:14:45;19.27;;;6.05;;
67063;SDS011;58476;48.072;11.970;2023-07-24T12:17:11;22.17;;;5.70;;
67063;SDS011;58476;48.072;11.970;2023-07-24T12:19:42;24.50;;;5.93;;
67063;SDS011;58476;48.072;11.970;2023-07-24T12:22:07;11.88;;;5.53;;
67063;SDS011;58476;48.072;11.970;2023-07-24T12:24:33;18.35;;;5.45;;
67063;SDS011;58476;48.072;11.970;2023-07-24T12:26:59;17.63;;;4.68;;
67063;SDS011;58476;48.072;11.970;2023-07-24T12:29:24;20.05;;;5.07;;
67063;SDS011;58476;48.072;11.970;2023-07-24T12:31:50;14.27;;;5.32;;
67063;SDS011;58476;48.072;11.970;2023-07-24T12:34:18;14.93;;;5.03;;
67063;SDS011;58476;48.072;11.970;2023-07-24T12:36:43;19.83;;;5.63;;
67063;SDS011;58476;48.072;11.970;2023-07-24T12:39:11;17.00;;;5.15;;
67063;SDS011;58476;48.072;11.970;2023-07-24T12:41:36;16.95;;;4.88;;
67063;SDS011;58476;48.072;11.970;2023-07-24T12:44:01;17.63;;;5.25;;
67063;SDS011;58476;48.072;11.970;2023-07-24T12:46:27;19.73;;;5.13;;
67063;SDS011;58476;48.072;11.970;2023-07-24T12:48:52;22.80;;;5.45;;
67063;SDS011;58476;48.072;11.970;2023-07-24T12:51:18;21.40;;;5.53;;
67063;SDS011;58476;48.072;11.970;2023-07-24T12:53:43;14.52;;;4.60;;
67063;SDS011;58476;48.072;11.970;2023-07-24T12:56:08;20.48;;;4.95;;
67063;SDS011;58476;48.072;11.970;2023-07-24T12:58:34;17.23;;;5.28;;
67063;SDS011;58476;48.072;11.970;2023-07-24T13:00:59;16.50;;;5.38;;
67063;SDS011;58476;48.072;11.970;2023-07-24T13:03:24;20.50;;;4.82;;
67063;SDS011;58476;48.072;11.970;2023-07-24T13:05:50;22.58;;;4.88;;
67063;SDS011;58476;48.072;11.970;2023-07-24T13:08:15;12.77;;;4.13;;
67063;SDS011;58476;48.072;11.970;2023-07-24T13:10:40;11.85;;;4.40;;
67063;SDS011;58476;48.072;11.970;2023-07-24T13:13:06;17.42;;;4.30;;
67063;SDS011;58476;48.072;11.970;2023-07-24T13:15:31;11.88;;;4.75;;
67063;SDS011;58476;48.072;11.970;2023-07-24T13:17:57;10.73;;;3.97;;
67063;SDS011;58476;48.072;11.970;2023-07-24T13:20:22;11.95;;;3.95;;
67063;SDS011;58476;48.072;11.970;2023-07-24T13:22:49;9.43;;;3.78;;
67063;SDS011;58476;48.072;11.970;2023-07-24T13:25:15;18.40;;;4.40;;
67063;SDS011;58476;48.072;11.970;2023-07-24T13:27:40;12.73;;;3.92;;
67063;SDS011;58476;48.072;11.970;2023-07-24T13:30:06;11.90;;;4.00;;
67063;SDS011;58476;48.072;11.970;2023-07-24T13:32:31;7.95;;;4.15;;
67063;SDS011;58476;48.072;11.970;2023-07-24T13:34:57;12.38;;;3.83;;
67063;SDS011;58476;48.072;11.970;2023-07-24T13:37:22;14.23;;;4.22;;
67063;SDS011;58476;48.072;11.970;2023-07-24T13:39:47;18.05;;;4.20;;
67063;SDS011;58476;48.072;11.970;2023-07-24T13:42:13;19.25;;;4.28;;
67063;SDS011;58476;48.072;11.970;2023-07-24T13:44:38;16.20;;;4.43;;
67063;SDS011;58476;48.072;11.970;2023-07-24T13:47:04;16.40;;;3.90;;
67063;SDS011;58476;48.072;11.970;2023-07-24T13:49:29;10.00;;;3.95;;
67063;SDS011;58476;48.072;11.970;2023-07-24T13:51:55;10.85;;;3.85;;
67063;SDS011;58476;48.072;11.970;2023-07-24T13:54:20;10.82;;;3.67;;
67063;SDS011;58476;48.072;11.970;2023-07-24T13:56:46;10.05;;;3.70;;
67063;SDS011;58476;48.072;11.970;2023-07-24T13:59:11;10.43;;;3.90;;
67063;SDS011;58476;48.072;11.970;2023-07-24T14:01:36;14.30;;;3.42;;
67063;SDS011;58476;48.072;11.970;2023-07-24T14:04:02;8.80;;;3.30;;
67063;SDS011;58476;48.072;11.970;2023-07-24T14:06:27;12.52;;;3.95;;
67063;SDS011;58476;48.072;11.970;2023-07-24T14:08:52;16.15;;;3.85;;
67063;SDS011;58476;48.072;11.970;2023-07-24T14:11:18;7.93;;;3.45;;
67063;SDS011;58476;48.072;11.970;2023-07-24T14:13:43;10.63;;;3.60;;
67063;SDS011;58476;48.072;11.970;2023-07-24T14:16:09;12.63;;;3.67;;
67063;SDS011;58476;48.072;11.970;2023-07-24T14:18:34;11.57;;;3.67;;
67063;SDS011;58476;48.072;11.970;2023-07-24T14:20:59;9.77;;;3.47;;
67063;SDS011;58476;48.072;11.970;2023-07-24T14:23:26;11.60;;;3.63;;
67063;SDS011;58476;48.072;11.970;2023-07-24T14:25:51;8.20;;;3.70;;
67063;SDS011;58476;48.072;11.970;2023-07-24T14:28:16;8.40;;;3.22;;